sensor_id;sensor_type;location;lat;lon;timestamp;P1;durP1;ratioP1;P2;durP2;ratioP2
77880;SDS011;67077;50.298;18.996;2023-03-19T00:02:03;31.80;;;14.20;;
77880;SDS011;67077;50.298;18.996;2023-03-19T00:04:30;35.10;;;14.70;;
77880;SDS011;67077;50.298;18.996;2023-03-19T00:06:57;31.70;;;14.00;;
77880;SDS011;67077;50.298;18.996;2023-03-19T00:09:24;34.40;;;15.10;;
77880;SDS011;67077;50.298;18.996;2023-03-19T00:11:52;31.50;;;14.60;;
77880;SDS011;67077;50.298;18.996;2023-03-19T00:14:19;29.50;;;14.60;;
77880;SDS011;67077;50.298;18.996;2023-03-19T00:16:46;30.80;;;14.10;;
77880;SDS011;67077;50.298;18.996;2023-03-19T00:19:13;32.70;;;14.10;;
77880;SDS011;67077;50.298;18.996;2023-03-19T00:21:40;30.30;;;13.80;;
77880;SDS011;67077;50.298;18.996;2023-03-19T00:24:06;32.70;;;14.80;;
77880;SDS011;67077;50.298;18.996;2023-03-19T00:26:35;29.70;;;13.90;;
77880;SDS011;67077;50.298;18.996;2023-03-19T00:29:02;33.50;;;14.80;;
77880;SDS011;67077;50.298;18.996;2023-03-19T00:31:29;31.70;;;14.70;;
77880;SDS011;67077;50.298;18.996;2023-03-19T00:33:57;36.50;;;15.00;;
77880;SDS011;67077;50.298;18.996;2023-03-19T00:36:25;34.40;;;14.60;;
77880;SDS011;67077;50.298;18.996;2023-03-19T00:38:53;34.90;;;15.00;;
77880;SDS011;67077;50.298;18.996;2023-03-19T00:41:20;33.20;;;14.90;;
77880;SDS011;67077;50.298;18.996;2023-03-19T00:43:51;34.00;;;14.70;;
77880;SDS011;67077;50.298;18.996;2023-03-19T00:48:46;31.10;;;13.30;;
77880;SDS011;67077;50.298;18.996;2023-03-19T00:51:12;33.10;;;14.30;;
77880;SDS011;67077;50.298;18.996;2023-03-19T00:53:42;29.30;;;13.30;;
77880;SDS011;67077;50.298;18.996;2023-03-19T00:56:10;29.30;;;11.80;;
77880;SDS011;67077;50.298;18.996;2023-03-19T00:58:38;29.40;;;12.70;;
77880;SDS011;67077;50.298;18.996;2023-03-19T01:01:10;27.90;;;12.50;;
77880;SDS011;67077;50.298;18.996;2023-03-19T01:03:38;28.80;;;12.60;;
77880;SDS011;67077;50.298;18.996;2023-03-19T01:06:05;31.70;;;12.50;;
77880;SDS011;67077;50.298;18.996;2023-03-19T01:08:32;25.00;;;11.10;;
77880;SDS011;67077;50.298;18.996;2023-03-19T01:11:06;26.40;;;11.60;;
77880;SDS011;67077;50.298;18.996;2023-03-19T01:13:33;29.40;;;11.80;;
77880;SDS011;67077;50.298;18.996;2023-03-19T01:16:00;22.80;;;10.40;;
77880;SDS011;67077;50.298;18.996;2023-03-19T01:18:27;23.50;;;10.50;;
77880;SDS011;67077;50.298;18.996;2023-03-19T01:20:54;22.80;;;11.20;;
77880;SDS011;67077;50.298;18.996;2023-03-19T01:23:21;20.80;;;10.40;;
77880;SDS011;67077;50.298;18.996;2023-03-19T01:25:47;24.90;;;10.80;;
77880;SDS011;67077;50.298;18.996;2023-03-19T01:28:15;21.10;;;10.00;;
77880;SDS011;67077;50.298;18.996;2023-03-19T01:30:41;20.50;;;9.60;;
77880;SDS011;67077;50.298;18.996;2023-03-19T01:33:08;23.60;;;10.90;;
77880;SDS011;67077;50.298;18.996;2023-03-19T01:35:34;22.60;;;10.60;;
77880;SDS011;67077;50.298;18.996;2023-03-19T01:38:01;19.50;;;9.50;;
77880;SDS011;67077;50.298;18.996;2023-03-19T01:40:27;19.40;;;9.90;;
77880;SDS011;67077;50.298;18.996;2023-03-19T01:43:11;19.00;;;8.90;;
77880;SDS011;67077;50.298;18.996;2023-03-19T01:45:38;21.10;;;9.80;;
77880;SDS011;67077;50.298;18.996;2023-03-19T01:48:27;19.20;;;9.40;;
77880;SDS011;67077;50.298;18.996;2023-03-19T01:51:03;22.00;;;10.00;;
77880;SDS011;67077;50.298;18.996;2023-03-19T01:53:33;19.50;;;9.60;;
77880;SDS011;67077;50.298;18.996;2023-03-19T01:56:02;19.00;;;9.40;;
77880;SDS011;67077;50.298;18.996;2023-03-19T01:58:32;21.90;;;9.70;;
77880;SDS011;67077;50.298;18.996;2023-03-19T02:00:58;18.00;;;9.10;;
77880;SDS011;67077;50.298;18.996;2023-03-19T02:03:25;19.10;;;9.50;;
77880;SDS011;67077;50.298;18.996;2023-03-19T02:05:52;20.40;;;9.10;;
77880;SDS011;67077;50.298;18.996;2023-03-19T02:08:21;20.50;;;9.90;;
77880;SDS011;67077;50.298;18.996;2023-03-19T02:10:50;21.10;;;10.30;;
77880;SDS011;67077;50.298;18.996;2023-03-19T02:13:21;20.10;;;9.90;;
77880;SDS011;67077;50.298;18.996;2023-03-19T02:15:48;21.70;;;10.00;;
77880;SDS011;67077;50.298;18.996;2023-03-19T02:18:16;22.90;;;10.70;;
77880;SDS011;67077;50.298;18.996;2023-03-19T02:23:33;21.40;;;10.60;;
77880;SDS011;67077;50.298;18.996;2023-03-19T02:29:00;23.00;;;11.30;;
77880;SDS011;67077;50.298;18.996;2023-03-19T02:31:27;24.20;;;11.50;;
77880;SDS011;67077;50.298;18.996;2023-03-19T02:34:00;26.10;;;11.90;;
77880;SDS011;67077;50.298;18.996;2023-03-19T02:36:33;24.30;;;11.00;;
77880;SDS011;67077;50.298;18.996;2023-03-19T02:39:03;23.40;;;10.80;;
77880;SDS011;67077;50.298;18.996;2023-03-19T02:41:32;27.00;;;12.00;;
77880;SDS011;67077;50.298;18.996;2023-03-19T02:44:02;27.10;;;12.00;;
77880;SDS011;67077;50.298;18.996;2023-03-19T02:46:29;27.20;;;11.50;;
77880;SDS011;67077;50.298;18.996;2023-03-19T02:48:56;25.90;;;12.10;;
77880;SDS011;67077;50.298;18.996;2023-03-19T02:51:24;24.20;;;11.10;;
77880;SDS011;67077;50.298;18.996;2023-03-19T02:53:51;23.90;;;11.70;;
77880;SDS011;67077;50.298;18.996;2023-03-19T02:56:17;22.90;;;11.10;;
77880;SDS011;67077;50.298;18.996;2023-03-19T02:58:44;26.10;;;11.00;;
77880;SDS011;67077;50.298;18.996;2023-03-19T03:01:10;22.10;;;10.80;;
77880;SDS011;67077;50.298;18.996;2023-03-19T03:03:37;23.70;;;11.30;;
77880;SDS011;67077;50.298;18.996;2023-03-19T03:06:04;20.50;;;10.30;;
77880;SDS011;67077;50.298;18.996;2023-03-19T03:08:31;25.00;;;11.50;;
77880;SDS011;67077;50.298;18.996;2023-03-19T03:10:58;23.70;;;11.30;;
77880;SDS011;67077;50.298;18.996;2023-03-19T03:13:25;24.70;;;10.80;;
77880;SDS011;67077;50.298;18.996;2023-03-19T03:15:52;26.20;;;11.70;;
77880;SDS011;67077;50.298;18.996;2023-03-19T03:18:18;22.70;;;11.10;;
77880;SDS011;67077;50.298;18.996;2023-03-19T03:20:45;25.50;;;11.60;;
77880;SDS011;67077;50.298;18.996;2023-03-19T03:23:12;25.80;;;11.80;;
77880;SDS011;67077;50.298;18.996;2023-03-19T03:25:39;26.80;;;12.50;;
77880;SDS011;67077;50.298;18.996;2023-03-19T03:28:05;23.70;;;11.20;;
77880;SDS011;67077;50.298;18.996;2023-03-19T03:30:32;25.60;;;11.30;;
77880;SDS011;67077;50.298;18.996;2023-03-19T03:32:59;26.60;;;12.50;;
77880;SDS011;67077;50.298;18.996;2023-03-19T03:35:25;26.00;;;12.30;;
77880;SDS011;67077;50.298;18.996;2023-03-19T03:37:52;27.80;;;13.00;;
77880;SDS011;67077;50.298;18.996;2023-03-19T03:40:19;27.80;;;14.00;;
77880;SDS011;67077;50.298;18.996;2023-03-19T03:42:45;27.30;;;13.50;;
77880;SDS011;67077;50.298;18.996;2023-03-19T03:45:12;29.30;;;13.80;;
77880;SDS011;67077;50.298;18.996;2023-03-19T03:47:39;27.10;;;13.30;;
77880;SDS011;67077;50.298;18.996;2023-03-19T03:50:06;32.00;;;14.30;;
77880;SDS011;67077;50.298;18.996;2023-03-19T03:52:36;30.20;;;13.90;;
77880;SDS011;67077;50.298;18.996;2023-03-19T03:55:03;33.20;;;15.20;;
77880;SDS011;67077;50.298;18.996;2023-03-19T03:57:30;32.30;;;14.60;;
77880;SDS011;67077;50.298;18.996;2023-03-19T03:59:57;32.20;;;15.10;;
77880;SDS011;67077;50.298;18.996;2023-03-19T04:02:23;33.40;;;15.50;;
77880;SDS011;67077;50.298;18.996;2023-03-19T04:04:50;34.70;;;15.80;;
77880;SDS011;67077;50.298;18.996;2023-03-19T04:07:16;34.50;;;16.00;;
77880;SDS011;67077;50.298;18.996;2023-03-19T04:09:43;35.60;;;16.50;;
77880;SDS011;67077;50.298;18.996;2023-03-19T04:12:13;39.90;;;17.10;;
77880;SDS011;67077;50.298;18.996;2023-03-19T04:14:41;43.00;;;19.00;;
77880;SDS011;67077;50.298;18.996;2023-03-19T04:17:08;41.40;;;18.80;;
77880;SDS011;67077;50.298;18.996;2023-03-19T04:19:34;39.10;;;18.30;;
77880;SDS011;67077;50.298;18.996;2023-03-19T04:22:01;40.90;;;18.60;;
77880;SDS011;67077;50.298;18.996;2023-03-19T04:24:28;41.40;;;18.20;;
77880;SDS011;67077;50.298;18.996;2023-03-19T04:26:55;40.70;;;18.60;;
77880;SDS011;67077;50.298;18.996;2023-03-19T04:29:21;39.90;;;18.50;;
77880;SDS011;67077;50.298;18.996;2023-03-19T04:31:49;36.80;;;17.50;;
77880;SDS011;67077;50.298;18.996;2023-03-19T04:34:16;37.60;;;17.80;;
77880;SDS011;67077;50.298;18.996;2023-03-19T04:36:42;41.00;;;18.00;;
77880;SDS011;67077;50.298;18.996;2023-03-19T04:39:09;38.60;;;17.70;;
77880;SDS011;67077;50.298;18.996;2023-03-19T04:41:35;37.20;;;17.50;;
77880;SDS011;67077;50.298;18.996;2023-03-19T04:44:02;36.30;;;17.40;;
77880;SDS011;67077;50.298;18.996;2023-03-19T04:46:29;36.20;;;17.60;;
77880;SDS011;67077;50.298;18.996;2023-03-19T04:48:55;41.20;;;18.10;;
77880;SDS011;67077;50.298;18.996;2023-03-19T04:51:22;37.60;;;18.30;;
77880;SDS011;67077;50.298;18.996;2023-03-19T04:53:49;35.50;;;17.50;;
77880;SDS011;67077;50.298;18.996;2023-03-19T04:56:15;36.60;;;17.30;;
77880;SDS011;67077;50.298;18.996;2023-03-19T04:58:43;32.80;;;17.00;;
77880;SDS011;67077;50.298;18.996;2023-03-19T05:01:10;35.90;;;17.10;;
77880;SDS011;67077;50.298;18.996;2023-03-19T05:03:37;40.00;;;16.90;;
77880;SDS011;67077;50.298;18.996;2023-03-19T05:06:03;38.90;;;17.40;;
77880;SDS011;67077;50.298;18.996;2023-03-19T05:08:30;40.30;;;17.60;;
77880;SDS011;67077;50.298;18.996;2023-03-19T05:10:57;37.70;;;17.50;;
77880;SDS011;67077;50.298;18.996;2023-03-19T05:13:23;36.60;;;16.70;;
77880;SDS011;67077;50.298;18.996;2023-03-19T05:15:51;34.60;;;16.30;;
77880;SDS011;67077;50.298;18.996;2023-03-19T05:18:20;37.70;;;16.70;;
77880;SDS011;67077;50.298;18.996;2023-03-19T05:20:47;34.30;;;16.70;;
77880;SDS011;67077;50.298;18.996;2023-03-19T05:23:14;38.90;;;18.70;;
77880;SDS011;67077;50.298;18.996;2023-03-19T05:25:40;50.60;;;21.50;;
77880;SDS011;67077;50.298;18.996;2023-03-19T05:28:07;46.10;;;21.00;;
77880;SDS011;67077;50.298;18.996;2023-03-19T05:30:34;49.60;;;23.90;;
77880;SDS011;67077;50.298;18.996;2023-03-19T05:33:01;76.50;;;34.70;;
77880;SDS011;67077;50.298;18.996;2023-03-19T05:35:28;73.30;;;33.20;;
77880;SDS011;67077;50.298;18.996;2023-03-19T05:37:55;66.20;;;29.50;;
77880;SDS011;67077;50.298;18.996;2023-03-19T05:40:23;62.40;;;28.20;;
77880;SDS011;67077;50.298;18.996;2023-03-19T05:42:50;59.70;;;27.00;;
77880;SDS011;67077;50.298;18.996;2023-03-19T05:45:16;63.40;;;26.90;;
77880;SDS011;67077;50.298;18.996;2023-03-19T05:47:45;59.10;;;26.30;;
77880;SDS011;67077;50.298;18.996;2023-03-19T05:50:13;61.50;;;27.70;;
77880;SDS011;67077;50.298;18.996;2023-03-19T05:52:40;56.10;;;26.80;;
77880;SDS011;67077;50.298;18.996;2023-03-19T05:55:07;58.00;;;25.80;;
77880;SDS011;67077;50.298;18.996;2023-03-19T05:57:34;52.50;;;25.10;;
77880;SDS011;67077;50.298;18.996;2023-03-19T06:00:01;52.40;;;25.10;;
77880;SDS011;67077;50.298;18.996;2023-03-19T06:02:32;54.90;;;25.40;;
77880;SDS011;67077;50.298;18.996;2023-03-19T06:04:59;56.20;;;25.30;;
77880;SDS011;67077;50.298;18.996;2023-03-19T06:07:26;54.50;;;23.20;;
77880;SDS011;67077;50.298;18.996;2023-03-19T06:09:52;48.50;;;22.30;;
77880;SDS011;67077;50.298;18.996;2023-03-19T06:12:19;44.20;;;20.80;;
77880;SDS011;67077;50.298;18.996;2023-03-19T06:14:45;41.70;;;20.00;;
77880;SDS011;67077;50.298;18.996;2023-03-19T06:17:13;45.70;;;21.90;;
77880;SDS011;67077;50.298;18.996;2023-03-19T06:19:39;50.10;;;23.20;;
77880;SDS011;67077;50.298;18.996;2023-03-19T06:22:06;52.50;;;24.70;;
77880;SDS011;67077;50.298;18.996;2023-03-19T06:24:33;52.00;;;23.50;;
77880;SDS011;67077;50.298;18.996;2023-03-19T06:26:59;54.80;;;25.60;;
77880;SDS011;67077;50.298;18.996;2023-03-19T06:29:26;42.20;;;21.40;;
77880;SDS011;67077;50.298;18.996;2023-03-19T06:31:53;45.00;;;22.20;;
77880;SDS011;67077;50.298;18.996;2023-03-19T06:34:20;46.30;;;22.50;;
77880;SDS011;67077;50.298;18.996;2023-03-19T06:36:46;45.30;;;21.60;;
77880;SDS011;67077;50.298;18.996;2023-03-19T06:39:13;41.40;;;20.90;;
77880;SDS011;67077;50.298;18.996;2023-03-19T06:41:39;39.80;;;20.40;;
77880;SDS011;67077;50.298;18.996;2023-03-19T06:44:06;38.30;;;19.50;;
77880;SDS011;67077;50.298;18.996;2023-03-19T06:46:33;35.80;;;18.90;;
77880;SDS011;67077;50.298;18.996;2023-03-19T06:48:59;37.70;;;18.60;;
77880;SDS011;67077;50.298;18.996;2023-03-19T06:51:26;34.20;;;17.00;;
77880;SDS011;67077;50.298;18.996;2023-03-19T06:53:53;33.50;;;17.50;;
77880;SDS011;67077;50.298;18.996;2023-03-19T06:56:20;32.50;;;16.70;;
77880;SDS011;67077;50.298;18.996;2023-03-19T06:58:46;32.40;;;16.70;;
77880;SDS011;67077;50.298;18.996;2023-03-19T07:01:13;31.20;;;16.10;;
77880;SDS011;67077;50.298;18.996;2023-03-19T07:03:39;29.90;;;15.50;;
77880;SDS011;67077;50.298;18.996;2023-03-19T07:06:06;28.40;;;16.00;;
77880;SDS011;67077;50.298;18.996;2023-03-19T07:08:32;30.30;;;15.50;;
77880;SDS011;67077;50.298;18.996;2023-03-19T07:11:03;28.50;;;15.50;;
77880;SDS011;67077;50.298;18.996;2023-03-19T07:13:31;30.60;;;15.60;;
77880;SDS011;67077;50.298;18.996;2023-03-19T07:15:58;25.80;;;14.20;;
77880;SDS011;67077;50.298;18.996;2023-03-19T07:18:25;26.50;;;14.70;;
77880;SDS011;67077;50.298;18.996;2023-03-19T07:20:52;29.30;;;14.50;;
77880;SDS011;67077;50.298;18.996;2023-03-19T07:23:18;27.40;;;14.90;;
77880;SDS011;67077;50.298;18.996;2023-03-19T07:25:45;28.00;;;15.10;;
77880;SDS011;67077;50.298;18.996;2023-03-19T07:28:13;27.20;;;13.70;;
77880;SDS011;67077;50.298;18.996;2023-03-19T07:30:40;26.50;;;14.40;;
77880;SDS011;67077;50.298;18.996;2023-03-19T07:33:07;26.60;;;14.40;;
77880;SDS011;67077;50.298;18.996;2023-03-19T07:35:33;26.30;;;13.80;;
77880;SDS011;67077;50.298;18.996;2023-03-19T07:38:00;27.00;;;14.10;;
77880;SDS011;67077;50.298;18.996;2023-03-19T07:40:27;27.20;;;13.60;;
77880;SDS011;67077;50.298;18.996;2023-03-19T07:42:54;22.00;;;11.80;;
77880;SDS011;67077;50.298;18.996;2023-03-19T07:45:21;20.80;;;11.40;;
77880;SDS011;67077;50.298;18.996;2023-03-19T07:47:50;20.20;;;11.20;;
77880;SDS011;67077;50.298;18.996;2023-03-19T07:50:17;16.00;;;9.60;;
77880;SDS011;67077;50.298;18.996;2023-03-19T07:52:47;18.30;;;9.90;;
77880;SDS011;67077;50.298;18.996;2023-03-19T07:55:16;16.10;;;8.20;;
77880;SDS011;67077;50.298;18.996;2023-03-19T07:57:43;18.20;;;8.90;;
77880;SDS011;67077;50.298;18.996;2023-03-19T08:00:10;16.20;;;8.40;;
77880;SDS011;67077;50.298;18.996;2023-03-19T08:02:37;11.90;;;7.20;;
77880;SDS011;67077;50.298;18.996;2023-03-19T08:05:08;13.20;;;7.60;;
77880;SDS011;67077;50.298;18.996;2023-03-19T08:07:58;12.40;;;7.50;;
77880;SDS011;67077;50.298;18.996;2023-03-19T08:10:28;13.70;;;7.40;;
77880;SDS011;67077;50.298;18.996;2023-03-19T08:12:58;12.20;;;6.90;;
77880;SDS011;67077;50.298;18.996;2023-03-19T08:15:25;15.10;;;6.90;;
77880;SDS011;67077;50.298;18.996;2023-03-19T08:17:59;14.50;;;7.50;;
77880;SDS011;67077;50.298;18.996;2023-03-19T08:20:27;14.80;;;7.20;;
77880;SDS011;67077;50.298;18.996;2023-03-19T08:23:10;13.90;;;7.80;;
77880;SDS011;67077;50.298;18.996;2023-03-19T08:25:40;12.80;;;7.20;;
77880;SDS011;67077;50.298;18.996;2023-03-19T08:31:12;13.50;;;7.50;;
77880;SDS011;67077;50.298;18.996;2023-03-19T08:33:43;12.90;;;7.70;;
77880;SDS011;67077;50.298;18.996;2023-03-19T08:36:18;13.90;;;7.50;;
77880;SDS011;67077;50.298;18.996;2023-03-19T08:38:49;16.90;;;8.40;;
77880;SDS011;67077;50.298;18.996;2023-03-19T08:41:20;15.50;;;7.70;;
77880;SDS011;67077;50.298;18.996;2023-03-19T08:43:47;14.70;;;8.10;;
77880;SDS011;67077;50.298;18.996;2023-03-19T08:46:14;15.90;;;8.40;;
77880;SDS011;67077;50.298;18.996;2023-03-19T08:48:41;15.10;;;8.80;;
77880;SDS011;67077;50.298;18.996;2023-03-19T08:51:08;17.30;;;9.60;;
77880;SDS011;67077;50.298;18.996;2023-03-19T08:53:37;16.10;;;9.50;;
77880;SDS011;67077;50.298;18.996;2023-03-19T08:56:05;15.90;;;8.90;;
77880;SDS011;67077;50.298;18.996;2023-03-19T08:58:33;14.80;;;8.30;;
77880;SDS011;67077;50.298;18.996;2023-03-19T09:01:04;17.60;;;9.80;;
77880;SDS011;67077;50.298;18.996;2023-03-19T09:03:57;17.70;;;9.30;;
77880;SDS011;67077;50.298;18.996;2023-03-19T09:06:26;16.70;;;9.70;;
77880;SDS011;67077;50.298;18.996;2023-03-19T09:08:53;18.30;;;10.00;;
77880;SDS011;67077;50.298;18.996;2023-03-19T09:11:20;19.10;;;10.00;;
77880;SDS011;67077;50.298;18.996;2023-03-19T09:14:20;17.00;;;10.50;;
77880;SDS011;67077;50.298;18.996;2023-03-19T09:16:48;18.10;;;10.30;;
77880;SDS011;67077;50.298;18.996;2023-03-19T09:19:16;18.40;;;10.40;;
77880;SDS011;67077;50.298;18.996;2023-03-19T09:21:43;17.80;;;10.80;;
77880;SDS011;67077;50.298;18.996;2023-03-19T09:24:11;20.60;;;11.10;;
77880;SDS011;67077;50.298;18.996;2023-03-19T09:26:38;18.90;;;11.20;;
77880;SDS011;67077;50.298;18.996;2023-03-19T09:29:05;19.00;;;10.90;;
77880;SDS011;67077;50.298;18.996;2023-03-19T09:31:32;16.60;;;9.40;;
77880;SDS011;67077;50.298;18.996;2023-03-19T09:33:58;17.30;;;9.80;;
77880;SDS011;67077;50.298;18.996;2023-03-19T09:36:25;15.00;;;8.80;;
77880;SDS011;67077;50.298;18.996;2023-03-19T09:38:52;15.90;;;9.80;;
77880;SDS011;67077;50.298;18.996;2023-03-19T09:41:22;16.90;;;9.90;;
77880;SDS011;67077;50.298;18.996;2023-03-19T09:46:23;14.20;;;8.70;;
77880;SDS011;67077;50.298;18.996;2023-03-19T09:49:03;13.00;;;8.20;;
77880;SDS011;67077;50.298;18.996;2023-03-19T09:51:57;14.20;;;8.30;;
77880;SDS011;67077;50.298;18.996;2023-03-19T09:57:37;15.00;;;8.60;;
77880;SDS011;67077;50.298;18.996;2023-03-19T10:00:09;14.90;;;8.80;;
77880;SDS011;67077;50.298;18.996;2023-03-19T10:02:45;16.10;;;8.50;;
77880;SDS011;67077;50.298;18.996;2023-03-19T10:16:45;11.20;;;6.80;;
77880;SDS011;67077;50.298;18.996;2023-03-19T10:19:19;12.60;;;6.90;;
77880;SDS011;67077;50.298;18.996;2023-03-19T10:21:59;13.50;;;7.20;;
77880;SDS011;67077;50.298;18.996;2023-03-19T10:24:31;13.20;;;8.00;;
77880;SDS011;67077;50.298;18.996;2023-03-19T10:27:10;12.40;;;7.50;;
77880;SDS011;67077;50.298;18.996;2023-03-19T10:29:39;13.80;;;7.80;;
77880;SDS011;67077;50.298;18.996;2023-03-19T10:34:50;12.40;;;6.40;;
77880;SDS011;67077;50.298;18.996;2023-03-19T10:37:21;12.30;;;6.70;;
77880;SDS011;67077;50.298;18.996;2023-03-19T10:39:51;13.90;;;6.70;;
77880;SDS011;67077;50.298;18.996;2023-03-19T10:45:38;12.20;;;7.40;;
77880;SDS011;67077;50.298;18.996;2023-03-19T10:48:05;12.10;;;7.20;;
77880;SDS011;67077;50.298;18.996;2023-03-19T10:50:44;12.60;;;7.40;;
77880;SDS011;67077;50.298;18.996;2023-03-19T10:53:30;12.80;;;7.80;;
77880;SDS011;67077;50.298;18.996;2023-03-19T10:59:05;13.20;;;7.10;;
77880;SDS011;67077;50.298;18.996;2023-03-19T11:01:45;15.90;;;7.80;;
77880;SDS011;67077;50.298;18.996;2023-03-19T11:04:18;19.40;;;10.10;;
77880;SDS011;67077;50.298;18.996;2023-03-19T11:06:47;14.40;;;7.80;;
77880;SDS011;67077;50.298;18.996;2023-03-19T11:11:55;15.40;;;7.60;;
77880;SDS011;67077;50.298;18.996;2023-03-19T11:14:26;13.00;;;7.70;;
77880;SDS011;67077;50.298;18.996;2023-03-19T11:17:16;12.70;;;7.60;;
77880;SDS011;67077;50.298;18.996;2023-03-19T11:19:50;13.20;;;7.60;;
77880;SDS011;67077;50.298;18.996;2023-03-19T11:24:51;16.10;;;8.10;;
77880;SDS011;67077;50.298;18.996;2023-03-19T11:27:26;16.50;;;8.00;;
77880;SDS011;67077;50.298;18.996;2023-03-19T11:30:01;12.50;;;7.30;;
77880;SDS011;67077;50.298;18.996;2023-03-19T11:35:24;12.40;;;7.30;;
77880;SDS011;67077;50.298;18.996;2023-03-19T11:37:58;11.00;;;7.10;;
77880;SDS011;67077;50.298;18.996;2023-03-19T11:55:11;12.10;;;6.20;;
77880;SDS011;67077;50.298;18.996;2023-03-19T12:00:35;13.40;;;6.30;;
77880;SDS011;67077;50.298;18.996;2023-03-19T12:09:10;11.00;;;6.30;;
77880;SDS011;67077;50.298;18.996;2023-03-19T12:12:15;13.00;;;6.80;;
77880;SDS011;67077;50.298;18.996;2023-03-19T12:17:42;12.80;;;7.10;;
77880;SDS011;67077;50.298;18.996;2023-03-19T12:24:01;11.70;;;6.10;;
77880;SDS011;67077;50.298;18.996;2023-03-19T12:30:03;14.30;;;6.90;;
77880;SDS011;67077;50.298;18.996;2023-03-19T12:35:46;11.80;;;6.60;;
77880;SDS011;67077;50.298;18.996;2023-03-19T12:38:26;13.10;;;6.90;;
77880;SDS011;67077;50.298;18.996;2023-03-19T12:41:01;14.00;;;7.30;;
77880;SDS011;67077;50.298;18.996;2023-03-19T12:43:35;9.90;;;5.90;;
77880;SDS011;67077;50.298;18.996;2023-03-19T12:46:24;10.70;;;6.60;;
77880;SDS011;67077;50.298;18.996;2023-03-19T12:49:16;12.10;;;7.00;;
77880;SDS011;67077;50.298;18.996;2023-03-19T12:51:55;9.70;;;6.10;;
77880;SDS011;67077;50.298;18.996;2023-03-19T12:54:28;13.20;;;7.10;;
77880;SDS011;67077;50.298;18.996;2023-03-19T13:00:33;11.90;;;6.50;;
77880;SDS011;67077;50.298;18.996;2023-03-19T13:03:32;13.60;;;7.30;;
77880;SDS011;67077;50.298;18.996;2023-03-19T13:06:30;14.50;;;7.10;;
77880;SDS011;67077;50.298;18.996;2023-03-19T13:09:15;11.70;;;7.00;;
77880;SDS011;67077;50.298;18.996;2023-03-19T13:12:10;13.60;;;7.90;;
77880;SDS011;67077;50.298;18.996;2023-03-19T13:14:51;12.00;;;7.30;;
77880;SDS011;67077;50.298;18.996;2023-03-19T13:20:13;12.60;;;6.70;;
77880;SDS011;67077;50.298;18.996;2023-03-19T13:22:59;12.90;;;7.50;;
77880;SDS011;67077;50.298;18.996;2023-03-19T13:25:37;14.20;;;6.70;;
77880;SDS011;67077;50.298;18.996;2023-03-19T13:28:11;12.20;;;6.90;;
77880;SDS011;67077;50.298;18.996;2023-03-19T13:33:26;12.90;;;7.20;;
77880;SDS011;67077;50.298;18.996;2023-03-19T13:35:54;13.30;;;7.20;;
77880;SDS011;67077;50.298;18.996;2023-03-19T13:38:32;11.70;;;7.10;;
77880;SDS011;67077;50.298;18.996;2023-03-19T13:41:04;13.50;;;7.80;;
77880;SDS011;67077;50.298;18.996;2023-03-19T13:43:52;15.40;;;8.20;;
77880;SDS011;67077;50.298;18.996;2023-03-19T13:53:54;13.80;;;7.50;;
77880;SDS011;67077;50.298;18.996;2023-03-19T13:56:53;15.90;;;8.20;;
77880;SDS011;67077;50.298;18.996;2023-03-19T13:59:34;13.50;;;7.90;;
77880;SDS011;67077;50.298;18.996;2023-03-19T14:02:43;14.80;;;8.00;;
77880;SDS011;67077;50.298;18.996;2023-03-19T14:07:29;13.80;;;8.40;;
77880;SDS011;67077;50.298;18.996;2023-03-19T14:10:21;14.20;;;8.40;;
77880;SDS011;67077;50.298;18.996;2023-03-19T14:12:59;16.80;;;9.10;;
77880;SDS011;67077;50.298;18.996;2023-03-19T14:15:29;16.30;;;8.50;;
77880;SDS011;67077;50.298;18.996;2023-03-19T14:17:58;13.20;;;8.30;;
77880;SDS011;67077;50.298;18.996;2023-03-19T14:20:31;18.60;;;8.80;;
77880;SDS011;67077;50.298;18.996;2023-03-19T14:37:18;18.30;;;9.80;;
77880;SDS011;67077;50.298;18.996;2023-03-19T14:45:41;15.60;;;9.10;;
77880;SDS011;67077;50.298;18.996;2023-03-19T14:48:15;15.50;;;9.70;;
77880;SDS011;67077;50.298;18.996;2023-03-19T14:56:33;16.40;;;9.90;;
77880;SDS011;67077;50.298;18.996;2023-03-19T14:59:01;15.10;;;9.30;;
77880;SDS011;67077;50.298;18.996;2023-03-19T15:01:47;15.00;;;8.90;;
77880;SDS011;67077;50.298;18.996;2023-03-19T15:04:19;18.30;;;10.00;;
77880;SDS011;67077;50.298;18.996;2023-03-19T15:06:58;19.80;;;10.30;;
77880;SDS011;67077;50.298;18.996;2023-03-19T15:09:27;18.50;;;10.60;;
77880;SDS011;67077;50.298;18.996;2023-03-19T15:21:16;19.70;;;10.90;;
77880;SDS011;67077;50.298;18.996;2023-03-19T15:23:46;17.30;;;10.40;;
77880;SDS011;67077;50.298;18.996;2023-03-19T15:26:27;17.90;;;9.90;;
77880;SDS011;67077;50.298;18.996;2023-03-19T15:31:44;16.80;;;10.00;;
77880;SDS011;67077;50.298;18.996;2023-03-19T15:34:21;16.10;;;9.30;;
77880;SDS011;67077;50.298;18.996;2023-03-19T15:37:16;18.00;;;9.70;;
77880;SDS011;67077;50.298;18.996;2023-03-19T15:40:16;20.30;;;9.60;;
77880;SDS011;67077;50.298;18.996;2023-03-19T15:42:46;18.70;;;10.20;;
77880;SDS011;67077;50.298;18.996;2023-03-19T15:45:15;17.90;;;8.90;;
77880;SDS011;67077;50.298;18.996;2023-03-19T15:48:00;14.30;;;9.10;;
77880;SDS011;67077;50.298;18.996;2023-03-19T15:50:44;18.70;;;9.40;;
77880;SDS011;67077;50.298;18.996;2023-03-19T15:53:21;16.90;;;9.50;;
77880;SDS011;67077;50.298;18.996;2023-03-19T15:55:52;16.00;;;9.30;;
77880;SDS011;67077;50.298;18.996;2023-03-19T15:58:29;17.50;;;10.20;;
77880;SDS011;67077;50.298;18.996;2023-03-19T16:01:03;17.90;;;9.70;;
77880;SDS011;67077;50.298;18.996;2023-03-19T16:03:35;18.40;;;10.60;;
77880;SDS011;67077;50.298;18.996;2023-03-19T16:06:04;20.10;;;10.10;;
77880;SDS011;67077;50.298;18.996;2023-03-19T16:08:47;20.20;;;10.70;;
77880;SDS011;67077;50.298;18.996;2023-03-19T16:14:20;20.20;;;11.30;;
77880;SDS011;67077;50.298;18.996;2023-03-19T16:16:58;22.80;;;11.30;;
77880;SDS011;67077;50.298;18.996;2023-03-19T16:21:57;20.10;;;10.70;;
77880;SDS011;67077;50.298;18.996;2023-03-19T16:24:30;21.40;;;11.20;;
77880;SDS011;67077;50.298;18.996;2023-03-19T16:27:13;22.30;;;11.60;;
77880;SDS011;67077;50.298;18.996;2023-03-19T16:29:55;25.40;;;12.10;;
77880;SDS011;67077;50.298;18.996;2023-03-19T16:32:28;19.80;;;11.70;;
77880;SDS011;67077;50.298;18.996;2023-03-19T16:37:46;23.00;;;12.20;;
77880;SDS011;67077;50.298;18.996;2023-03-19T16:42:50;20.30;;;11.50;;
77880;SDS011;67077;50.298;18.996;2023-03-19T16:47:49;21.30;;;11.40;;
77880;SDS011;67077;50.298;18.996;2023-03-19T16:50:19;20.70;;;11.40;;
77880;SDS011;67077;50.298;18.996;2023-03-19T16:52:48;22.70;;;12.30;;
77880;SDS011;67077;50.298;18.996;2023-03-19T16:55:22;23.20;;;11.40;;
77880;SDS011;67077;50.298;18.996;2023-03-19T16:57:58;21.50;;;11.40;;
77880;SDS011;67077;50.298;18.996;2023-03-19T17:00:29;22.70;;;12.00;;
77880;SDS011;67077;50.298;18.996;2023-03-19T17:02:58;22.30;;;12.10;;
77880;SDS011;67077;50.298;18.996;2023-03-19T17:05:27;23.30;;;12.50;;
77880;SDS011;67077;50.298;18.996;2023-03-19T17:07:54;28.50;;;13.30;;